sensor_id;sensor_type;location;lat;lon;timestamp;noise_LAeq;noise_LA_min;noise_LA_max;noise_LA01;noise_LA95
51665;Laerm;37751;52.408;12.536;2024-03-08T00:01:00;48.51;29.42;63.03;;
51665;Laerm;37751;52.408;12.536;2024-03-08T00:03:33;36.65;28.22;48.19;;
51665;Laerm;37751;52.408;12.536;2024-03-08T00:06:12;49.24;30.87;66.96;;
51665;Laerm;37751;52.408;12.536;2024-03-08T00:08:43;44.12;28.02;62.69;;
51665;Laerm;37751;52.408;12.536;2024-03-08T00:11:14;47.80;27.55;67.38;;
51665;Laerm;37751;52.408;12.536;2024-03-08T00:13:46;41.84;27.47;56.73;;
51665;Laerm;37751;52.408;12.536;2024-03-08T00:16:17;40.94;27.18;51.47;;
51665;Laerm;37751;52.408;12.536;2024-03-08T00:18:55;49.49;32.36;63.75;;
51665;Laerm;37751;52.408;12.536;2024-03-08T00:21:26;45.85;28.32;65.91;;
51665;Laerm;37751;52.408;12.536;2024-03-08T00:24:00;55.54;29.94;80.10;;
51665;Laerm;37751;52.408;12.536;2024-03-08T00:26:34;50.09;31.40;66.37;;
51665;Laerm;37751;52.408;12.536;2024-03-08T00:29:05;47.77;28.77;66.93;;
51665;Laerm;37751;52.408;12.536;2024-03-08T00:31:35;47.34;28.25;63.95;;
51665;Laerm;37751;52.408;12.536;2024-03-08T00:34:09;35.39;27.97;44.53;;
51665;Laerm;37751;52.408;12.536;2024-03-08T00:36:41;52.02;28.28;68.54;;
51665;Laerm;37751;52.408;12.536;2024-03-08T00:39:11;30.13;28.50;34.66;;
51665;Laerm;37751;52.408;12.536;2024-03-08T00:41:43;43.51;29.02;59.22;;
51665;Laerm;37751;52.408;12.536;2024-03-08T00:44:25;49.36;29.51;65.39;;
51665;Laerm;37751;52.408;12.536;2024-03-08T00:46:56;45.48;29.86;65.12;;
51665;Laerm;37751;52.408;12.536;2024-03-08T00:49:29;40.73;28.53;59.02;;
51665;Laerm;37751;52.408;12.536;2024-03-08T00:52:10;44.09;27.90;61.24;;
51665;Laerm;37751;52.408;12.536;2024-03-08T00:54:43;47.44;28.43;64.13;;
51665;Laerm;37751;52.408;12.536;2024-03-08T00:57:17;39.93;28.13;53.06;;
51665;Laerm;37751;52.408;12.536;2024-03-08T00:59:48;47.98;29.29;65.14;;
51665;Laerm;37751;52.408;12.536;2024-03-08T01:02:23;43.88;27.57;61.23;;
51665;Laerm;37751;52.408;12.536;2024-03-08T01:04:56;44.78;27.86;59.35;;
51665;Laerm;37751;52.408;12.536;2024-03-08T01:07:41;49.35;30.22;68.06;;
51665;Laerm;37751;52.408;12.536;2024-03-08T01:10:17;48.41;31.71;63.95;;
51665;Laerm;37751;52.408;12.536;2024-03-08T01:12:48;34.82;28.86;49.14;;
51665;Laerm;37751;52.408;12.536;2024-03-08T01:15:29;51.92;30.40;65.63;;
51665;Laerm;37751;52.408;12.536;2024-03-08T01:18:00;49.81;31.41;66.40;;
51665;Laerm;37751;52.408;12.536;2024-03-08T01:20:37;48.21;28.67;61.31;;
51665;Laerm;37751;52.408;12.536;2024-03-08T01:23:20;46.01;28.14;64.86;;
51665;Laerm;37751;52.408;12.536;2024-03-08T01:25:54;30.32;27.71;39.05;;
51665;Laerm;37751;52.408;12.536;2024-03-08T01:28:27;47.28;28.47;62.79;;
51665;Laerm;37751;52.408;12.536;2024-03-08T01:30:58;45.09;28.12;65.83;;
51665;Laerm;37751;52.408;12.536;2024-03-08T01:33:34;45.42;28.45;60.12;;
51665;Laerm;37751;52.408;12.536;2024-03-08T01:36:12;44.76;28.66;63.79;;
51665;Laerm;37751;52.408;12.536;2024-03-08T01:38:44;49.25;29.11;68.72;;
51665;Laerm;37751;52.408;12.536;2024-03-08T01:41:26;43.86;27.58;63.71;;
51665;Laerm;37751;52.408;12.536;2024-03-08T01:43:57;45.50;27.59;61.68;;
51665;Laerm;37751;52.408;12.536;2024-03-08T01:46:29;49.17;28.14;64.77;;
51665;Laerm;37751;52.408;12.536;2024-03-08T01:49:08;41.55;28.47;62.89;;
51665;Laerm;37751;52.408;12.536;2024-03-08T01:51:44;46.19;28.14;59.35;;
51665;Laerm;37751;52.408;12.536;2024-03-08T01:54:19;46.27;28.24;65.30;;
51665;Laerm;37751;52.408;12.536;2024-03-08T01:57:00;49.68;30.03;65.37;;
51665;Laerm;37751;52.408;12.536;2024-03-08T02:00:13;41.07;28.76;58.78;;
51665;Laerm;37751;52.408;12.536;2024-03-08T02:02:46;43.91;29.27;61.65;;
51665;Laerm;37751;52.408;12.536;2024-03-08T02:05:17;42.47;27.84;62.32;;
51665;Laerm;37751;52.408;12.536;2024-03-08T02:07:53;39.06;27.96;58.51;;
51665;Laerm;37751;52.408;12.536;2024-03-08T02:10:25;46.63;28.84;64.00;;
51665;Laerm;37751;52.408;12.536;2024-03-08T02:13:06;42.61;28.53;60.30;;
51665;Laerm;37751;52.408;12.536;2024-03-08T02:15:59;50.34;28.79;67.74;;
51665;Laerm;37751;52.408;12.536;2024-03-08T02:18:40;30.89;28.37;39.55;;
51665;Laerm;37751;52.408;12.536;2024-03-08T02:21:18;47.61;29.63;61.72;;
51665;Laerm;37751;52.408;12.536;2024-03-08T02:24:02;45.03;28.54;64.03;;
51665;Laerm;37751;52.408;12.536;2024-03-08T02:26:48;45.15;28.53;63.33;;
51665;Laerm;37751;52.408;12.536;2024-03-08T02:29:20;30.18;28.28;37.56;;
51665;Laerm;37751;52.408;12.536;2024-03-08T02:32:11;40.95;28.25;61.82;;
51665;Laerm;37751;52.408;12.536;2024-03-08T02:34:57;45.57;28.29;62.25;;
51665;Laerm;37751;52.408;12.536;2024-03-08T02:37:44;49.32;30.09;62.08;;
51665;Laerm;37751;52.408;12.536;2024-03-08T02:40:25;51.51;30.62;65.49;;
51665;Laerm;37751;52.408;12.536;2024-03-08T02:43:00;46.02;30.12;62.48;;
51665;Laerm;37751;52.408;12.536;2024-03-08T02:45:37;44.78;28.08;59.97;;
51665;Laerm;37751;52.408;12.536;2024-03-08T02:48:09;49.57;28.71;61.81;;
51665;Laerm;37751;52.408;12.536;2024-03-08T02:50:44;49.14;28.61;67.95;;
51665;Laerm;37751;52.408;12.536;2024-03-08T02:53:20;52.57;38.03;68.46;;
51665;Laerm;37751;52.408;12.536;2024-03-08T02:55:52;45.98;29.86;64.72;;
51665;Laerm;37751;52.408;12.536;2024-03-08T02:58:23;49.06;28.79;63.95;;
51665;Laerm;37751;52.408;12.536;2024-03-08T03:00:57;51.89;34.09;66.89;;
51665;Laerm;37751;52.408;12.536;2024-03-08T03:03:38;49.09;32.61;65.11;;
51665;Laerm;37751;52.408;12.536;2024-03-08T03:06:09;49.79;28.90;63.15;;
51665;Laerm;37751;52.408;12.536;2024-03-08T03:08:49;54.32;38.00;69.21;;
51665;Laerm;37751;52.408;12.536;2024-03-08T03:11:33;53.69;35.61;67.71;;
51665;Laerm;37751;52.408;12.536;2024-03-08T03:14:07;55.25;38.24;67.68;;
51665;Laerm;37751;52.408;12.536;2024-03-08T03:16:38;50.18;34.31;64.01;;
51665;Laerm;37751;52.408;12.536;2024-03-08T03:19:11;52.58;37.56;64.05;;
51665;Laerm;37751;52.408;12.536;2024-03-08T03:21:42;46.45;32.58;62.39;;
51665;Laerm;37751;52.408;12.536;2024-03-08T03:24:16;53.05;35.68;69.32;;
51665;Laerm;37751;52.408;12.536;2024-03-08T03:26:49;52.07;36.43;62.87;;
51665;Laerm;37751;52.408;12.536;2024-03-08T03:29:20;55.79;41.38;66.41;;
51665;Laerm;37751;52.408;12.536;2024-03-08T03:31:54;54.20;39.15;67.88;;
51665;Laerm;37751;52.408;12.536;2024-03-08T03:34:45;53.51;40.68;65.18;;
51665;Laerm;37751;52.408;12.536;2024-03-08T03:37:16;55.44;41.22;65.49;;
51665;Laerm;37751;52.408;12.536;2024-03-08T03:39:50;53.61;38.05;65.25;;
51665;Laerm;37751;52.408;12.536;2024-03-08T03:42:24;57.61;41.19;69.29;;
51665;Laerm;37751;52.408;12.536;2024-03-08T03:44:57;56.09;42.74;66.22;;
51665;Laerm;37751;52.408;12.536;2024-03-08T03:47:35;57.00;40.56;67.15;;
51665;Laerm;37751;52.408;12.536;2024-03-08T03:50:28;54.14;39.33;64.96;;
51665;Laerm;37751;52.408;12.536;2024-03-08T03:53:04;56.55;39.65;66.76;;
51665;Laerm;37751;52.408;12.536;2024-03-08T03:55:43;60.11;44.61;74.54;;
51665;Laerm;37751;52.408;12.536;2024-03-08T03:58:37;57.72;42.25;68.67;;
51665;Laerm;37751;52.408;12.536;2024-03-08T04:01:48;56.62;38.86;67.09;;
51665;Laerm;37751;52.408;12.536;2024-03-08T04:04:59;56.50;38.22;68.12;;
51665;Laerm;37751;52.408;12.536;2024-03-08T04:07:43;57.57;43.64;73.77;;
51665;Laerm;37751;52.408;12.536;2024-03-08T04:10:17;57.16;43.67;69.15;;
51665;Laerm;37751;52.408;12.536;2024-03-08T04:13:14;54.55;40.97;65.99;;
51665;Laerm;37751;52.408;12.536;2024-03-08T04:15:48;58.26;35.91;71.64;;
51665;Laerm;37751;52.408;12.536;2024-03-08T04:18:47;59.02;43.87;76.02;;
51665;Laerm;37751;52.408;12.536;2024-03-08T04:21:35;55.76;41.10;67.46;;
51665;Laerm;37751;52.408;12.536;2024-03-08T04:24:16;57.32;44.96;66.87;;
51665;Laerm;37751;52.408;12.536;2024-03-08T04:26:52;57.94;43.63;69.04;;
51665;Laerm;37751;52.408;12.536;2024-03-08T04:29:31;58.51;44.21;69.32;;
51665;Laerm;37751;52.408;12.536;2024-03-08T04:32:25;57.79;44.97;74.21;;
51665;Laerm;37751;52.408;12.536;2024-03-08T04:35:06;58.30;47.04;66.79;;
51665;Laerm;37751;52.408;12.536;2024-03-08T04:38:03;60.25;44.96;83.39;;
51665;Laerm;37751;52.408;12.536;2024-03-08T04:40:49;58.14;45.41;68.03;;
51665;Laerm;37751;52.408;12.536;2024-03-08T04:43:21;59.88;45.42;66.87;;
51665;Laerm;37751;52.408;12.536;2024-03-08T04:46:00;60.78;41.89;82.48;;
51665;Laerm;37751;52.408;12.536;2024-03-08T04:48:33;57.10;44.93;74.80;;
51665;Laerm;37751;52.408;12.536;2024-03-08T04:51:05;57.98;44.66;66.90;;
51665;Laerm;37751;52.408;12.536;2024-03-08T04:53:38;59.25;45.15;74.71;;
51665;Laerm;37751;52.408;12.536;2024-03-08T04:56:09;62.61;44.65;82.29;;
51665;Laerm;37751;52.408;12.536;2024-03-08T04:58:51;59.43;47.60;72.21;;
51665;Laerm;37751;52.408;12.536;2024-03-08T05:01:25;57.02;43.23;66.68;;
51665;Laerm;37751;52.408;12.536;2024-03-08T05:04:17;59.61;45.22;69.25;;
51665;Laerm;37751;52.408;12.536;2024-03-08T05:06:51;57.30;42.95;68.85;;
51665;Laerm;37751;52.408;12.536;2024-03-08T05:09:22;58.91;44.54;69.01;;
51665;Laerm;37751;52.408;12.536;2024-03-08T05:11:53;56.88;43.47;68.62;;
51665;Laerm;37751;52.408;12.536;2024-03-08T05:14:26;58.76;45.15;68.61;;
51665;Laerm;37751;52.408;12.536;2024-03-08T05:17:11;59.62;46.19;73.16;;
51665;Laerm;37751;52.408;12.536;2024-03-08T05:19:42;58.01;43.94;67.96;;
51665;Laerm;37751;52.408;12.536;2024-03-08T05:22:16;58.77;42.52;67.35;;
51665;Laerm;37751;52.408;12.536;2024-03-08T05:25:25;60.09;45.29;71.27;;
51665;Laerm;37751;52.408;12.536;2024-03-08T05:28:19;60.01;46.18;79.01;;
51665;Laerm;37751;52.408;12.536;2024-03-08T05:31:04;59.29;46.68;68.81;;
51665;Laerm;37751;52.408;12.536;2024-03-08T05:33:40;60.26;46.54;78.92;;
51665;Laerm;37751;52.408;12.536;2024-03-08T05:36:34;59.66;47.38;71.13;;
51665;Laerm;37751;52.408;12.536;2024-03-08T05:39:15;60.08;42.82;75.86;;
51665;Laerm;37751;52.408;12.536;2024-03-08T05:41:49;61.17;45.92;75.04;;
51665;Laerm;37751;52.408;12.536;2024-03-08T05:44:57;60.08;46.91;70.39;;
51665;Laerm;37751;52.408;12.536;2024-03-08T05:47:48;63.97;45.25;83.58;;
51665;Laerm;37751;52.408;12.536;2024-03-08T05:50:25;59.85;47.85;68.29;;
51665;Laerm;37751;52.408;12.536;2024-03-08T05:52:58;60.21;48.80;67.53;;
51665;Laerm;37751;52.408;12.536;2024-03-08T05:55:32;65.49;48.38;87.51;;
51665;Laerm;37751;52.408;12.536;2024-03-08T05:58:04;59.24;46.24;72.52;;
51665;Laerm;37751;52.408;12.536;2024-03-08T06:01:16;59.11;47.49;68.06;;
51665;Laerm;37751;52.408;12.536;2024-03-08T06:04:00;62.00;47.09;80.27;;
51665;Laerm;37751;52.408;12.536;2024-03-08T06:06:54;63.53;44.99;74.05;;
51665;Laerm;37751;52.408;12.536;2024-03-08T06:09:26;59.19;45.64;67.44;;
51665;Laerm;37751;52.408;12.536;2024-03-08T06:12:37;63.37;46.27;80.35;;
51665;Laerm;37751;52.408;12.536;2024-03-08T06:15:10;61.68;49.83;81.66;;
51665;Laerm;37751;52.408;12.536;2024-03-08T06:17:45;67.05;50.10;90.52;;
51665;Laerm;37751;52.408;12.536;2024-03-08T06:20:21;60.75;51.18;73.30;;
51665;Laerm;37751;52.408;12.536;2024-03-08T06:22:57;67.36;52.01;82.76;;
51665;Laerm;37751;52.408;12.536;2024-03-08T06:25:29;60.88;47.85;71.10;;
51665;Laerm;37751;52.408;12.536;2024-03-08T06:28:06;59.94;48.84;69.82;;
51665;Laerm;37751;52.408;12.536;2024-03-08T06:30:37;59.34;47.61;67.96;;
51665;Laerm;37751;52.408;12.536;2024-03-08T06:33:11;62.02;49.98;75.26;;
51665;Laerm;37751;52.408;12.536;2024-03-08T06:36:05;60.98;49.26;72.27;;
51665;Laerm;37751;52.408;12.536;2024-03-08T06:38:53;60.21;48.05;69.06;;
51665;Laerm;37751;52.408;12.536;2024-03-08T06:41:25;61.29;49.58;68.41;;
51665;Laerm;37751;52.408;12.536;2024-03-08T06:43:56;60.08;45.65;68.81;;
51665;Laerm;37751;52.408;12.536;2024-03-08T06:46:33;59.45;46.99;66.93;;
51665;Laerm;37751;52.408;12.536;2024-03-08T06:49:04;60.77;45.78;70.89;;
51665;Laerm;37751;52.408;12.536;2024-03-08T06:52:06;60.29;44.05;68.14;;
51665;Laerm;37751;52.408;12.536;2024-03-08T06:54:54;60.18;45.22;68.11;;
51665;Laerm;37751;52.408;12.536;2024-03-08T06:57:32;61.38;45.00;71.77;;
51665;Laerm;37751;52.408;12.536;2024-03-08T07:00:05;61.01;45.57;68.87;;
51665;Laerm;37751;52.408;12.536;2024-03-08T07:02:55;59.56;45.83;67.96;;
51665;Laerm;37751;52.408;12.536;2024-03-08T07:05:29;61.41;50.42;69.52;;
51665;Laerm;37751;52.408;12.536;2024-03-08T07:08:25;60.21;47.57;70.13;;
51665;Laerm;37751;52.408;12.536;2024-03-08T07:11:00;59.89;47.00;66.70;;
51665;Laerm;37751;52.408;12.536;2024-03-08T07:13:31;61.59;46.54;77.02;;
51665;Laerm;37751;52.408;12.536;2024-03-08T07:16:03;61.65;47.58;72.58;;
51665;Laerm;37751;52.408;12.536;2024-03-08T07:18:36;59.14;47.61;70.36;;
51665;Laerm;37751;52.408;12.536;2024-03-08T07:21:18;60.67;50.20;70.85;;
51665;Laerm;37751;52.408;12.536;2024-03-08T07:23:49;60.77;51.10;69.65;;
51665;Laerm;37751;52.408;12.536;2024-03-08T07:26:42;61.28;46.92;70.97;;
51665;Laerm;37751;52.408;12.536;2024-03-08T07:29:17;60.78;47.60;71.38;;
51665;Laerm;37751;52.408;12.536;2024-03-08T07:31:48;63.03;48.97;79.80;;
51665;Laerm;37751;52.408;12.536;2024-03-08T07:34:26;66.40;50.80;79.09;;
51665;Laerm;37751;52.408;12.536;2024-03-08T07:37:02;60.19;46.20;71.34;;
51665;Laerm;37751;52.408;12.536;2024-03-08T07:39:50;70.35;49.78;84.33;;
51665;Laerm;37751;52.408;12.536;2024-03-08T07:42:29;61.69;49.37;71.93;;
51665;Laerm;37751;52.408;12.536;2024-03-08T07:45:11;60.77;46.45;73.59;;
51665;Laerm;37751;52.408;12.536;2024-03-08T07:48:15;65.72;50.61;76.39;;
51665;Laerm;37751;52.408;12.536;2024-03-08T07:51:10;60.15;50.25;68.67;;
51665;Laerm;37751;52.408;12.536;2024-03-08T07:54:01;63.12;49.93;75.73;;
51665;Laerm;37751;52.408;12.536;2024-03-08T07:56:56;60.71;49.48;67.91;;
51665;Laerm;37751;52.408;12.536;2024-03-08T07:59:33;59.64;50.01;68.97;;
51665;Laerm;37751;52.408;12.536;2024-03-08T08:02:14;59.04;45.59;69.46;;
51665;Laerm;37751;52.408;12.536;2024-03-08T08:05:16;59.77;48.89;69.22;;
51665;Laerm;37751;52.408;12.536;2024-03-08T08:08:18;61.95;46.27;76.08;;
51665;Laerm;37751;52.408;12.536;2024-03-08T08:10:49;61.10;50.33;73.18;;
51665;Laerm;37751;52.408;12.536;2024-03-08T08:13:40;58.91;44.94;69.33;;
51665;Laerm;37751;52.408;12.536;2024-03-08T08:16:48;57.63;42.83;67.04;;
51665;Laerm;37751;52.408;12.536;2024-03-08T08:20:00;58.37;46.36;78.47;;
51665;Laerm;37751;52.408;12.536;2024-03-08T08:22:42;58.91;46.30;68.99;;
51665;Laerm;37751;52.408;12.536;2024-03-08T08:25:25;60.07;49.68;69.59;;
51665;Laerm;37751;52.408;12.536;2024-03-08T08:27:56;60.18;47.35;67.72;;
51665;Laerm;37751;52.408;12.536;2024-03-08T08:30:27;69.17;45.32;89.66;;
51665;Laerm;37751;52.408;12.536;2024-03-08T08:33:04;68.00;46.80;89.46;;
51665;Laerm;37751;52.408;12.536;2024-03-08T08:35:36;76.56;48.22;95.13;;
51665;Laerm;37751;52.408;12.536;2024-03-08T08:38:08;62.75;47.18;77.71;;
51665;Laerm;37751;52.408;12.536;2024-03-08T08:40:42;60.90;46.35;72.99;;
51665;Laerm;37751;52.408;12.536;2024-03-08T08:43:47;60.51;45.08;71.55;;
51665;Laerm;37751;52.408;12.536;2024-03-08T08:46:54;59.65;46.08;72.26;;
51665;Laerm;37751;52.408;12.536;2024-03-08T08:49:41;60.81;46.39;72.14;;
51665;Laerm;37751;52.408;12.536;2024-03-08T08:52:14;60.10;45.30;70.08;;
51665;Laerm;37751;52.408;12.536;2024-03-08T08:55:22;60.68;47.86;70.74;;
51665;Laerm;37751;52.408;12.536;2024-03-08T08:57:59;59.53;49.10;66.78;;
51665;Laerm;37751;52.408;12.536;2024-03-08T09:00:31;60.64;47.65;72.71;;
51665;Laerm;37751;52.408;12.536;2024-03-08T09:03:02;58.99;46.48;69.05;;
51665;Laerm;37751;52.408;12.536;2024-03-08T09:05:57;60.82;49.51;71.13;;
51665;Laerm;37751;52.408;12.536;2024-03-08T09:08:38;58.98;47.34;66.39;;
51665;Laerm;37751;52.408;12.536;2024-03-08T09:11:18;59.79;48.78;68.57;;
51665;Laerm;37751;52.408;12.536;2024-03-08T09:13:53;60.69;44.78;72.95;;
51665;Laerm;37751;52.408;12.536;2024-03-08T09:16:24;68.49;50.39;88.61;;
51665;Laerm;37751;52.408;12.536;2024-03-08T09:19:36;60.06;48.30;70.23;;
51665;Laerm;37751;52.408;12.536;2024-03-08T09:22:10;61.24;48.04;77.27;;
51665;Laerm;37751;52.408;12.536;2024-03-08T09:24:44;61.05;48.21;71.42;;
51665;Laerm;37751;52.408;12.536;2024-03-08T09:27:15;62.84;48.39;78.20;;
51665;Laerm;37751;52.408;12.536;2024-03-08T09:29:51;60.94;49.45;74.77;;
51665;Laerm;37751;52.408;12.536;2024-03-08T09:32:43;57.82;48.12;71.45;;
51665;Laerm;37751;52.408;12.536;2024-03-08T09:35:17;62.75;49.63;75.41;;
51665;Laerm;37751;52.408;12.536;2024-03-08T09:37:54;58.64;45.98;68.01;;
51665;Laerm;37751;52.408;12.536;2024-03-08T09:40:27;59.92;47.33;67.56;;
51665;Laerm;37751;52.408;12.536;2024-03-08T09:42:59;58.64;47.25;69.02;;
51665;Laerm;37751;52.408;12.536;2024-03-08T09:46:03;60.73;47.09;77.56;;
51665;Laerm;37751;52.408;12.536;2024-03-08T09:48:34;61.89;48.15;76.82;;
51665;Laerm;37751;52.408;12.536;2024-03-08T09:51:17;60.87;48.47;70.27;;
51665;Laerm;37751;52.408;12.536;2024-03-08T09:54:14;59.31;47.14;72.87;;
51665;Laerm;37751;52.408;12.536;2024-03-08T09:56:52;63.60;46.00;72.32;;
51665;Laerm;37751;52.408;12.536;2024-03-08T09:59:33;63.55;51.95;73.33;;
51665;Laerm;37751;52.408;12.536;2024-03-08T10:03:06;63.40;44.84;83.68;;
51665;Laerm;37751;52.408;12.536;2024-03-08T10:06:39;61.21;47.38;75.18;;
51665;Laerm;37751;52.408;12.536;2024-03-08T10:10:29;60.63;51.00;73.55;;
51665;Laerm;37751;52.408;12.536;2024-03-08T10:14:13;58.83;47.53;69.88;;
51665;Laerm;37751;52.408;12.536;2024-03-08T10:17:09;60.43;43.51;71.47;;
51665;Laerm;37751;52.408;12.536;2024-03-08T10:21:38;59.37;45.44;69.22;;
51665;Laerm;37751;52.408;12.536;2024-03-08T10:24:47;57.74;46.32;67.59;;
51665;Laerm;37751;52.408;12.536;2024-03-08T10:28:18;60.85;49.98;69.88;;
51665;Laerm;37751;52.408;12.536;2024-03-08T10:31:05;60.38;47.81;71.64;;
51665;Laerm;37751;52.408;12.536;2024-03-08T10:33:38;61.78;48.84;83.59;;
51665;Laerm;37751;52.408;12.536;2024-03-08T10:36:20;59.55;47.94;66.80;;
51665;Laerm;37751;52.408;12.536;2024-03-08T10:39:12;59.45;48.88;68.89;;
51665;Laerm;37751;52.408;12.536;2024-03-08T10:41:52;59.52;45.34;66.92;;
51665;Laerm;37751;52.408;12.536;2024-03-08T10:44:52;60.30;45.92;71.92;;
51665;Laerm;37751;52.408;12.536;2024-03-08T10:47:30;58.80;47.87;67.28;;
51665;Laerm;37751;52.408;12.536;2024-03-08T10:50:23;60.17;46.30;78.85;;
51665;Laerm;37751;52.408;12.536;2024-03-08T10:52:55;59.68;48.08;70.63;;
51665;Laerm;37751;52.408;12.536;2024-03-08T10:55:37;60.63;48.91;71.12;;
51665;Laerm;37751;52.408;12.536;2024-03-08T10:58:10;60.58;48.68;69.55;;
51665;Laerm;37751;52.408;12.536;2024-03-08T11:00:44;60.29;47.54;71.64;;
51665;Laerm;37751;52.408;12.536;2024-03-08T11:03:44;60.23;46.91;69.71;;
51665;Laerm;37751;52.408;12.536;2024-03-08T11:06:42;59.55;49.58;69.16;;
51665;Laerm;37751;52.408;12.536;2024-03-08T11:09:30;80.33;49.99;101.33;;
51665;Laerm;37751;52.408;12.536;2024-03-08T11:12:19;61.09;49.48;71.50;;
51665;Laerm;37751;52.408;12.536;2024-03-08T11:15:12;60.19;47.11;81.85;;
51665;Laerm;37751;52.408;12.536;2024-03-08T11:18:09;59.53;48.15;70.55;;
51665;Laerm;37751;52.408;12.536;2024-03-08T11:20:43;59.89;48.77;70.58;;
51665;Laerm;37751;52.408;12.536;2024-03-08T11:23:35;59.24;46.01;70.39;;
51665;Laerm;37751;52.408;12.536;2024-03-08T11:26:18;62.77;50.64;79.55;;
51665;Laerm;37751;52.408;12.536;2024-03-08T11:28:49;58.88;49.45;65.57;;
51665;Laerm;37751;52.408;12.536;2024-03-08T11:31:36;60.47;48.12;71.55;;
51665;Laerm;37751;52.408;12.536;2024-03-08T11:34:17;59.57;48.07;67.70;;
51665;Laerm;37751;52.408;12.536;2024-03-08T11:36:53;62.12;49.31;72.67;;
51665;Laerm;37751;52.408;12.536;2024-03-08T11:39:25;58.63;47.05;68.62;;
51665;Laerm;37751;52.408;12.536;2024-03-08T11:42:03;59.47;45.04;73.57;;
51665;Laerm;37751;52.408;12.536;2024-03-08T11:44:34;60.20;49.22;71.03;;
51665;Laerm;37751;52.408;12.536;2024-03-08T11:47:26;58.07;46.29;69.14;;
51665;Laerm;37751;52.408;12.536;2024-03-08T11:50:14;60.43;50.12;75.90;;
51665;Laerm;37751;52.408;12.536;2024-03-08T11:52:49;59.49;47.44;67.73;;
51665;Laerm;37751;52.408;12.536;2024-03-08T11:55:24;59.23;46.93;68.96;;
51665;Laerm;37751;52.408;12.536;2024-03-08T11:58:03;58.74;42.13;68.73;;
51665;Laerm;37751;52.408;12.536;2024-03-08T12:00:38;59.76;47.46;67.82;;
51665;Laerm;37751;52.408;12.536;2024-03-08T12:03:09;59.53;46.85;65.84;;
51665;Laerm;37751;52.408;12.536;2024-03-08T12:05:43;59.72;47.18;67.58;;
51665;Laerm;37751;52.408;12.536;2024-03-08T12:08:15;60.34;45.69;74.67;;
51665;Laerm;37751;52.408;12.536;2024-03-08T12:10:46;61.43;50.77;69.31;;
51665;Laerm;37751;52.408;12.536;2024-03-08T12:13:17;62.91;50.58;78.40;;
51665;Laerm;37751;52.408;12.536;2024-03-08T12:15:49;59.30;48.12;72.38;;
51665;Laerm;37751;52.408;12.536;2024-03-08T12:18:22;59.34;45.51;66.34;;
51665;Laerm;37751;52.408;12.536;2024-03-08T12:21:09;62.35;48.07;79.74;;
51665;Laerm;37751;52.408;12.536;2024-03-08T12:23:42;58.05;48.58;67.85;;
51665;Laerm;37751;52.408;12.536;2024-03-08T12:26:14;60.10;48.39;70.32;;
51665;Laerm;37751;52.408;12.536;2024-03-08T12:28:46;59.48;43.57;66.86;;
51665;Laerm;37751;52.408;12.536;2024-03-08T12:31:19;59.59;45.68;70.55;;
51665;Laerm;37751;52.408;12.536;2024-03-08T12:34:00;58.49;45.68;69.87;;
51665;Laerm;37751;52.408;12.536;2024-03-08T12:36:37;59.53;48.50;67.68;;
51665;Laerm;37751;52.408;12.536;2024-03-08T12:39:09;59.95;46.33;68.57;;
51665;Laerm;37751;52.408;12.536;2024-03-08T12:41:48;71.12;47.47;90.90;;
51665;Laerm;37751;52.408;12.536;2024-03-08T12:44:27;60.89;49.57;71.09;;
51665;Laerm;37751;52.408;12.536;2024-03-08T12:46:58;60.50;48.68;69.65;;
51665;Laerm;37751;52.408;12.536;2024-03-08T12:49:29;59.26;46.34;68.01;;
51665;Laerm;37751;52.408;12.536;2024-03-08T12:52:08;58.09;45.77;68.47;;
51665;Laerm;37751;52.408;12.536;2024-03-08T12:54:39;59.74;46.07;70.05;;
51665;Laerm;37751;52.408;12.536;2024-03-08T12:57:10;59.02;45.32;67.14;;
51665;Laerm;37751;52.408;12.536;2024-03-08T12:59:59;58.91;46.38;67.13;;
51665;Laerm;37751;52.408;12.536;2024-03-08T13:02:51;56.44;41.77;66.30;;
51665;Laerm;37751;52.408;12.536;2024-03-08T13:05:27;58.94;47.39;74.45;;
51665;Laerm;37751;52.408;12.536;2024-03-08T13:08:11;60.90;50.78;71.11;;
51665;Laerm;37751;52.408;12.536;2024-03-08T13:10:46;59.53;47.47;70.30;;
51665;Laerm;37751;52.408;12.536;2024-03-08T13:13:19;60.36;47.23;74.47;;
51665;Laerm;37751;52.408;12.536;2024-03-08T13:15:50;59.82;46.19;68.95;;
51665;Laerm;37751;52.408;12.536;2024-03-08T13:18:21;59.58;47.27;69.10;;
51665;Laerm;37751;52.408;12.536;2024-03-08T13:20:55;58.58;47.81;74.07;;
51665;Laerm;37751;52.408;12.536;2024-03-08T13:23:28;60.29;47.22;68.82;;
51665;Laerm;37751;52.408;12.536;2024-03-08T13:26:06;59.94;48.47;69.81;;
51665;Laerm;37751;52.408;12.536;2024-03-08T13:28:40;59.89;49.08;67.69;;
51665;Laerm;37751;52.408;12.536;2024-03-08T13:31:14;58.20;46.65;66.13;;
51665;Laerm;37751;52.408;12.536;2024-03-08T13:33:58;58.90;46.16;68.40;;
51665;Laerm;37751;52.408;12.536;2024-03-08T13:36:32;58.34;44.94;65.13;;
51665;Laerm;37751;52.408;12.536;2024-03-08T13:39:19;60.03;47.44;68.73;;
51665;Laerm;37751;52.408;12.536;2024-03-08T13:41:55;59.73;50.20;69.20;;
51665;Laerm;37751;52.408;12.536;2024-03-08T13:44:30;58.91;47.03;71.17;;
51665;Laerm;37751;52.408;12.536;2024-03-08T13:47:01;58.76;44.67;70.44;;
51665;Laerm;37751;52.408;12.536;2024-03-08T13:49:32;59.90;48.56;68.99;;
51665;Laerm;37751;52.408;12.536;2024-03-08T13:52:05;59.79;46.93;70.70;;
51665;Laerm;37751;52.408;12.536;2024-03-08T13:54:39;57.70;47.45;64.80;;
51665;Laerm;37751;52.408;12.536;2024-03-08T13:57:18;59.29;43.87;70.12;;
51665;Laerm;37751;52.408;12.536;2024-03-08T13:59:50;58.90;46.59;68.95;;
51665;Laerm;37751;52.408;12.536;2024-03-08T14:02:48;59.58;47.64;70.22;;
51665;Laerm;37751;52.408;12.536;2024-03-08T14:05:50;59.54;47.71;69.55;;
51665;Laerm;37751;52.408;12.536;2024-03-08T14:09:04;61.93;46.94;76.42;;
51665;Laerm;37751;52.408;12.536;2024-03-08T14:12:13;59.19;47.59;67.36;;
51665;Laerm;37751;52.408;12.536;2024-03-08T14:15:16;58.88;45.00;69.12;;
51665;Laerm;37751;52.408;12.536;2024-03-08T14:18:05;59.89;45.30;67.13;;
51665;Laerm;37751;52.408;12.536;2024-03-08T14:21:26;60.48;46.08;71.29;;
51665;Laerm;37751;52.408;12.536;2024-03-08T14:24:49;60.74;51.20;68.09;;
51665;Laerm;37751;52.408;12.536;2024-03-08T14:28:00;60.19;48.83;67.99;;
51665;Laerm;37751;52.408;12.536;2024-03-08T14:31:22;59.23;44.50;66.70;;
51665;Laerm;37751;52.408;12.536;2024-03-08T14:34:15;58.51;47.25;67.40;;
51665;Laerm;37751;52.408;12.536;2024-03-08T14:37:38;59.95;47.05;71.87;;
51665;Laerm;37751;52.408;12.536;2024-03-08T14:41:01;59.66;46.56;74.05;;
51665;Laerm;37751;52.408;12.536;2024-03-08T14:44:14;59.50;45.83;66.86;;
51665;Laerm;37751;52.408;12.536;2024-03-08T14:47:08;60.44;46.51;70.98;;
51665;Laerm;37751;52.408;12.536;2024-03-08T14:50:06;59.41;46.41;66.50;;
51665;Laerm;37751;52.408;12.536;2024-03-08T14:52:55;60.03;46.16;69.02;;
51665;Laerm;37751;52.408;12.536;2024-03-08T14:55:52;60.10;47.14;67.51;;